createdAt,value
2017-12-28T00:01:26.611Z,3.10
2017-12-28T00:03:52.981Z,3.00
2017-12-28T00:06:19.455Z,3.00
2017-12-28T00:08:45.867Z,3.10
2017-12-28T00:11:12.975Z,3.10
2017-12-28T00:13:39.327Z,3.10
2017-12-28T00:16:05.730Z,3.20
2017-12-28T00:18:32.090Z,3.10
2017-12-28T00:20:58.392Z,3.10
2017-12-28T00:23:24.731Z,3.00
2017-12-28T00:25:51.112Z,2.90
2017-12-28T00:28:17.436Z,2.90
2017-12-28T00:30:43.767Z,3.00
2017-12-28T00:33:10.147Z,3.00
2017-12-28T00:35:36.553Z,3.00
2017-12-28T00:38:03.657Z,2.70
2017-12-28T00:40:30.118Z,2.70
2017-12-28T00:42:56.607Z,2.60
2017-12-28T00:45:23.083Z,2.80
2017-12-28T00:47:49.463Z,2.90
2017-12-28T00:50:15.815Z,2.70
2017-12-28T00:52:42.123Z,2.80
2017-12-28T00:55:08.452Z,2.70
2017-12-28T00:57:34.774Z,2.70
2017-12-28T01:00:01.836Z,2.70
2017-12-28T01:02:28.160Z,2.70
2017-12-28T01:04:54.477Z,2.60
2017-12-28T01:07:21.520Z,2.50
2017-12-28T01:09:48.586Z,2.50
2017-12-28T01:12:14.889Z,2.50
2017-12-28T01:14:41.965Z,2.50
2017-12-28T01:17:08.267Z,2.40
2017-12-28T01:19:35.322Z,2.50
2017-12-28T01:22:02.389Z,2.50
2017-12-28T01:24:28.709Z,2.40
2017-12-28T01:26:55.749Z,2.40
2017-12-28T01:29:22.851Z,2.50
2017-12-28T01:31:49.177Z,2.40
2017-12-28T01:34:15.501Z,2.40
2017-12-28T01:36:41.828Z,2.40
2017-12-28T01:39:08.168Z,2.30
2017-12-28T01:41:34.487Z,2.30
2017-12-28T01:44:00.787Z,2.30
2017-12-28T01:46:27.098Z,2.30
2017-12-28T01:48:54.163Z,2.30
2017-12-28T01:51:21.215Z,2.30
2017-12-28T01:53:47.555Z,2.20
2017-12-28T01:56:13.882Z,2.20
2017-12-28T01:58:40.221Z,2.10
2017-12-28T02:01:06.585Z,2.20
2017-12-28T02:03:32.913Z,2.20
2017-12-28T02:05:59.225Z,2.20
2017-12-28T02:08:25.575Z,2.40
2017-12-28T02:10:52.158Z,2.30
2017-12-28T02:13:18.506Z,2.20
2017-12-28T02:15:44.822Z,2.10
2017-12-28T02:18:11.869Z,2.30
2017-12-28T02:20:38.225Z,2.30
2017-12-28T02:23:04.532Z,2.30
2017-12-28T02:25:30.851Z,2.30
2017-12-28T02:27:57.192Z,2.30
2017-12-28T02:30:23.536Z,2.20
2017-12-28T02:32:49.850Z,2.30
2017-12-28T02:35:16.165Z,2.30
2017-12-28T02:37:43.243Z,2.30
2017-12-28T02:40:09.610Z,2.30
2017-12-28T02:42:36.741Z,2.30
2017-12-28T02:45:03.090Z,2.30
2017-12-28T02:47:29.421Z,2.30
2017-12-28T02:49:55.770Z,2.40
2017-12-28T02:52:22.877Z,2.30
2017-12-28T02:54:49.202Z,2.20
2017-12-28T02:57:15.557Z,2.40
2017-12-28T02:59:41.861Z,2.40
2017-12-28T03:02:08.178Z,2.50
2017-12-28T03:04:34.510Z,2.50
2017-12-28T03:07:00.808Z,2.40
2017-12-28T03:09:27.872Z,2.50
2017-12-28T03:11:54.212Z,2.50
2017-12-28T03:14:20.520Z,2.40
2017-12-28T03:16:47.565Z,2.30
2017-12-28T03:19:14.708Z,2.40
2017-12-28T03:21:41.775Z,2.30
2017-12-28T03:24:08.121Z,2.30
2017-12-28T03:26:34.468Z,2.30
2017-12-28T03:29:00.797Z,2.40
2017-12-28T03:31:27.195Z,2.40
2017-12-28T03:33:53.512Z,2.20
2017-12-28T03:36:20.577Z,2.20
2017-12-28T03:38:46.887Z,2.20
2017-12-28T03:41:13.936Z,2.30
2017-12-28T03:43:41.031Z,2.40
2017-12-28T03:46:07.338Z,2.30
2017-12-28T03:48:33.697Z,2.30
2017-12-28T03:50:59.998Z,2.30
2017-12-28T03:53:26.352Z,2.30
2017-12-28T03:55:52.723Z,2.20
2017-12-28T03:58:19.092Z,2.20
2017-12-28T04:00:45.390Z,2.20
2017-12-28T04:03:12.445Z,2.20
2017-12-28T04:05:39.530Z,2.30
2017-12-28T04:08:05.820Z,2.20
2017-12-28T04:10:32.892Z,2.30
2017-12-28T04:12:59.196Z,2.20
2017-12-28T04:15:25.558Z,2.30
2017-12-28T04:17:51.889Z,2.20
2017-12-28T04:20:18.220Z,2.30
2017-12-28T04:22:44.514Z,2.40
2017-12-28T04:25:10.835Z,2.40
2017-12-28T04:27:37.971Z,2.40
2017-12-28T04:30:04.298Z,2.30
2017-12-28T04:32:30.590Z,2.30
2017-12-28T04:34:56.910Z,2.30
2017-12-28T04:37:23.240Z,2.30
2017-12-28T04:39:49.574Z,2.40
2017-12-28T04:42:15.893Z,2.30
2017-12-28T04:44:42.247Z,2.40
2017-12-28T04:47:08.565Z,2.30
2017-12-28T04:49:34.871Z,2.50
2017-12-28T04:52:01.963Z,2.60
2017-12-28T04:54:28.270Z,2.50
2017-12-28T04:56:54.612Z,2.60
2017-12-28T04:59:20.911Z,2.60
2017-12-28T05:01:47.974Z,2.80
2017-12-28T05:04:14.288Z,2.70
2017-12-28T05:06:41.349Z,2.70
2017-12-28T05:09:08.404Z,2.70
2017-12-28T05:11:34.706Z,2.70
2017-12-28T05:14:01.035Z,2.70
2017-12-28T05:16:28.120Z,2.80
2017-12-28T05:18:54.508Z,2.80
2017-12-28T05:21:20.854Z,2.70
2017-12-28T05:23:47.905Z,2.60
2017-12-28T05:26:14.946Z,2.70
2017-12-28T05:28:42.011Z,2.70
2017-12-28T05:31:08.340Z,2.70
2017-12-28T05:33:34.661Z,2.80
2017-12-28T05:36:01.715Z,2.80
2017-12-28T05:38:28.763Z,2.80
2017-12-28T05:40:55.079Z,2.80
2017-12-28T05:43:22.166Z,2.90
2017-12-28T05:45:48.488Z,2.80
2017-12-28T05:48:14.865Z,2.90
2017-12-28T05:50:41.203Z,2.80
2017-12-28T05:53:07.521Z,2.80
2017-12-28T05:55:33.821Z,2.90
2017-12-28T05:58:00.151Z,2.90
2017-12-28T06:00:26.483Z,3.00
2017-12-28T06:02:52.788Z,3.10
2017-12-28T06:05:19.085Z,3.00
2017-12-28T06:07:45.409Z,3.00
2017-12-28T06:10:12.485Z,3.10
2017-12-28T06:12:38.828Z,3.00
2017-12-28T06:15:05.170Z,3.10
2017-12-28T06:17:31.504Z,3.00
2017-12-28T06:19:57.836Z,3.10
2017-12-28T06:22:24.146Z,3.00
2017-12-28T06:24:50.525Z,2.90
2017-12-28T06:27:16.871Z,3.00
2017-12-28T06:29:43.211Z,3.10
2017-12-28T06:32:10.271Z,3.20
2017-12-28T06:34:37.355Z,3.20
2017-12-28T06:37:03.647Z,3.20
2017-12-28T06:39:30.714Z,3.20
2017-12-28T06:41:57.008Z,3.10
2017-12-28T06:44:23.366Z,3.20
2017-12-28T06:46:49.699Z,3.20
2017-12-28T06:49:16.034Z,3.20
2017-12-28T06:51:42.371Z,3.20
2017-12-28T06:54:08.720Z,3.20
2017-12-28T06:56:35.043Z,3.20
2017-12-28T06:59:01.342Z,3.20
2017-12-28T07:01:28.408Z,3.30
2017-12-28T07:03:54.712Z,3.30
2017-12-28T07:06:21.775Z,3.20
2017-12-28T07:08:48.106Z,3.10
2017-12-28T07:11:14.430Z,3.30
2017-12-28T07:13:40.744Z,3.20
2017-12-28T07:16:07.818Z,3.30
2017-12-28T07:18:34.126Z,3.20
2017-12-28T07:21:01.192Z,3.30
2017-12-28T07:23:27.524Z,3.20
2017-12-28T07:25:53.882Z,3.30
2017-12-28T07:28:20.207Z,3.40
2017-12-28T07:30:46.510Z,3.30
2017-12-28T07:33:12.852Z,3.40
2017-12-28T07:35:39.183Z,3.40
2017-12-28T07:38:05.504Z,3.30
2017-12-28T07:40:31.855Z,3.40
2017-12-28T07:42:58.158Z,3.40
2017-12-28T07:45:24.475Z,3.50
2017-12-28T07:47:51.546Z,3.40
2017-12-28T07:50:17.865Z,3.40
2017-12-28T07:52:44.201Z,3.50
2017-12-28T07:55:10.504Z,3.30
2017-12-28T07:57:36.823Z,3.40
2017-12-28T08:00:03.160Z,3.40
2017-12-28T08:02:29.517Z,3.40
2017-12-28T08:04:55.846Z,3.30
2017-12-28T08:07:22.186Z,3.20
2017-12-28T08:09:48.493Z,3.20
2017-12-28T08:12:15.552Z,3.20
2017-12-28T08:14:41.883Z,3.20
2017-12-28T08:17:08.221Z,3.20
2017-12-28T08:19:34.544Z,3.00
2017-12-28T08:22:00.892Z,3.10
2017-12-28T08:24:27.284Z,3.30
2017-12-28T08:26:54.394Z,3.30
2017-12-28T08:29:20.750Z,3.30
2017-12-28T08:31:47.189Z,3.10
2017-12-28T08:34:13.517Z,3.00
2017-12-28T08:36:39.841Z,3.10
2017-12-28T08:39:06.195Z,3.10
2017-12-28T08:41:33.254Z,3.20
2017-12-28T08:43:59.586Z,3.20
2017-12-28T08:46:25.896Z,3.20
2017-12-28T08:48:52.979Z,3.20
2017-12-28T08:51:19.302Z,3.10
2017-12-28T08:53:45.617Z,3.20
2017-12-28T08:56:12.680Z,3.10
2017-12-28T08:58:39.036Z,3.00
2017-12-28T09:01:05.343Z,3.10
2017-12-28T09:03:31.676Z,3.20
2017-12-28T09:05:57.984Z,3.20
2017-12-28T09:08:25.033Z,3.40
2017-12-28T09:10:52.079Z,3.40
2017-12-28T09:13:19.154Z,3.30
2017-12-28T09:15:45.531Z,3.30
2017-12-28T09:18:11.868Z,3.50
2017-12-28T09:20:38.171Z,3.70
2017-12-28T09:23:04.517Z,3.70
2017-12-28T09:25:30.850Z,3.70
2017-12-28T09:27:57.917Z,3.80
2017-12-28T09:30:24.991Z,3.90
2017-12-28T09:32:51.317Z,3.90
2017-12-28T09:35:17.669Z,3.90
2017-12-28T09:37:44.002Z,4.10
2017-12-28T09:40:10.332Z,4.00
2017-12-28T09:42:36.663Z,3.70
2017-12-28T09:45:03.043Z,3.70
2017-12-28T09:47:30.108Z,3.70
2017-12-28T09:49:57.169Z,3.90
2017-12-28T09:52:23.483Z,3.80
2017-12-28T09:54:50.542Z,3.90
2017-12-28T09:57:16.881Z,3.90
2017-12-28T09:59:43.222Z,3.80
2017-12-28T10:02:09.575Z,3.90
2017-12-28T10:04:35.941Z,3.80
2017-12-28T10:07:03.026Z,3.70
2017-12-28T10:09:29.436Z,3.70
2017-12-28T10:11:56.509Z,3.90
2017-12-28T10:14:22.836Z,3.90
2017-12-28T10:16:49.143Z,3.90
2017-12-28T10:19:16.250Z,3.90
2017-12-28T10:21:42.572Z,3.90
2017-12-28T10:24:08.887Z,3.90
2017-12-28T10:26:35.208Z,3.90
2017-12-28T10:29:01.525Z,4.00
2017-12-28T10:31:27.851Z,4.00
2017-12-28T10:33:54.176Z,4.00
2017-12-28T10:36:20.790Z,4.10
2017-12-28T10:38:47.953Z,4.00
2017-12-28T10:41:15.029Z,4.10
2017-12-28T10:43:41.351Z,4.00
2017-12-28T10:46:07.721Z,4.00
2017-12-28T10:48:34.062Z,4.10
2017-12-28T10:51:00.391Z,4.20
2017-12-28T10:53:26.754Z,4.20
2017-12-28T10:55:53.092Z,4.30
2017-12-28T10:58:19.401Z,4.20
2017-12-28T11:00:46.489Z,4.30
2017-12-28T11:03:12.821Z,4.20
2017-12-28T11:05:39.160Z,4.30
2017-12-28T11:08:05.486Z,4.30
2017-12-28T11:10:31.814Z,4.40
2017-12-28T11:12:58.166Z,4.50
2017-12-28T11:15:24.472Z,4.60
2017-12-28T11:17:50.803Z,4.60
2017-12-28T11:20:17.148Z,4.50
2017-12-28T11:22:43.522Z,4.30
2017-12-28T11:25:09.968Z,4.40
2017-12-28T11:27:36.312Z,4.40
2017-12-28T11:30:02.654Z,4.50
2017-12-28T11:32:29.014Z,4.60
2017-12-28T11:34:55.355Z,4.70
2017-12-28T11:37:21.694Z,4.80
2017-12-28T11:39:48.004Z,4.70
2017-12-28T11:42:14.358Z,4.80
2017-12-28T11:44:40.684Z,4.80
2017-12-28T11:47:07.028Z,4.80
2017-12-28T11:49:33.402Z,4.80
2017-12-28T11:52:05.645Z,4.80
2017-12-28T11:54:36.710Z,4.70
2017-12-28T11:57:12.010Z,4.60
2017-12-28T11:59:39.156Z,4.70
2017-12-28T12:02:07.584Z,4.70
2017-12-28T12:04:39.954Z,5.00
2017-12-28T12:07:06.421Z,5.00
2017-12-28T12:09:40.266Z,4.80
2017-12-28T12:12:07.599Z,4.80
2017-12-28T12:14:33.930Z,4.80
2017-12-28T12:17:00.282Z,4.80
2017-12-28T12:19:26.663Z,4.70
2017-12-28T12:21:52.986Z,4.70
2017-12-28T12:24:19.400Z,4.80
2017-12-28T12:26:45.864Z,4.60
2017-12-28T12:29:12.275Z,4.70
2017-12-28T12:31:38.649Z,4.90
2017-12-28T12:34:05.829Z,5.00
2017-12-28T12:36:32.896Z,5.00
2017-12-28T12:38:59.365Z,5.00
2017-12-28T12:41:26.480Z,4.90
2017-12-28T12:43:52.807Z,4.90
2017-12-28T12:46:19.320Z,5.00
2017-12-28T12:48:45.801Z,4.90
2017-12-28T12:51:12.102Z,5.00
2017-12-28T12:53:38.518Z,5.00
2017-12-28T12:56:04.942Z,4.90
2017-12-28T12:58:31.263Z,4.90
2017-12-28T13:00:57.638Z,4.90
2017-12-28T13:03:24.102Z,4.90
2017-12-28T13:05:50.533Z,5.00
2017-12-28T13:08:16.868Z,5.10
2017-12-28T13:10:43.182Z,5.10
2017-12-28T13:13:09.485Z,5.10
2017-12-28T13:15:35.822Z,5.20
2017-12-28T13:18:02.135Z,5.20
2017-12-28T13:20:29.201Z,5.20
2017-12-28T13:22:55.506Z,5.10
2017-12-28T13:25:22.573Z,5.20
2017-12-28T13:27:48.885Z,5.20
2017-12-28T13:30:15.228Z,5.30
2017-12-28T13:32:41.542Z,5.10
2017-12-28T13:35:08.599Z,4.90
2017-12-28T13:37:34.941Z,4.90
2017-12-28T13:40:01.241Z,5.00
2017-12-28T13:42:28.305Z,5.00
2017-12-28T13:44:54.618Z,4.90
2017-12-28T13:47:21.686Z,4.90
2017-12-28T13:49:47.996Z,4.90
2017-12-28T13:52:15.071Z,5.00
2017-12-28T13:54:41.388Z,4.90
2017-12-28T13:57:07.750Z,4.90
2017-12-28T13:59:34.054Z,4.90
2017-12-28T14:02:01.120Z,4.80
2017-12-28T14:04:27.448Z,4.80
2017-12-28T14:06:53.793Z,4.80
2017-12-28T14:09:20.087Z,4.80
2017-12-28T14:11:47.131Z,4.80
2017-12-28T14:14:14.192Z,4.80
2017-12-28T14:16:40.507Z,4.80
2017-12-28T14:19:07.572Z,4.90
2017-12-28T14:21:33.870Z,4.90
2017-12-28T14:24:00.918Z,4.90
2017-12-28T14:26:27.963Z,5.00
2017-12-28T14:28:55.023Z,4.80
2017-12-28T14:31:22.076Z,4.80
2017-12-28T14:33:48.394Z,4.70
2017-12-28T14:36:15.423Z,4.70
2017-12-28T14:38:41.748Z,4.60
2017-12-28T14:41:08.063Z,4.60
2017-12-28T14:43:34.401Z,4.60
2017-12-28T14:46:00.734Z,4.70
2017-12-28T14:48:27.067Z,4.70
2017-12-28T14:50:53.361Z,4.60
2017-12-28T14:53:19.692Z,4.60
2017-12-28T14:55:46.010Z,4.50
2017-12-28T14:58:12.335Z,4.50
2017-12-28T15:00:38.647Z,4.40
2017-12-28T15:03:05.698Z,4.50
2017-12-28T15:05:32.767Z,4.40
2017-12-28T15:07:59.077Z,4.40
2017-12-28T15:10:26.142Z,4.40
2017-12-28T15:12:52.450Z,4.40
2017-12-28T15:15:19.526Z,4.30
2017-12-28T15:17:45.845Z,4.30
2017-12-28T15:20:12.157Z,4.30
2017-12-28T15:22:39.212Z,4.30
2017-12-28T15:25:05.557Z,4.30
2017-12-28T15:27:31.892Z,4.40
2017-12-28T15:29:58.223Z,4.40
2017-12-28T15:32:24.558Z,4.40
2017-12-28T15:34:50.878Z,4.40
2017-12-28T15:37:17.210Z,4.30
2017-12-28T15:39:43.518Z,4.30
2017-12-28T15:42:10.605Z,4.40
2017-12-28T15:44:36.983Z,4.40
2017-12-28T15:47:03.291Z,4.40
2017-12-28T15:49:31.719Z,4.30
2017-12-28T15:51:58.049Z,4.30
2017-12-28T15:54:25.094Z,4.30
2017-12-28T15:56:51.406Z,4.30
2017-12-28T15:59:18.561Z,4.40
2017-12-28T16:01:45.823Z,4.40
2017-12-28T16:04:12.129Z,4.30
2017-12-28T16:06:38.500Z,4.40
2017-12-28T16:09:04.862Z,4.40
2017-12-28T16:11:31.206Z,4.50
2017-12-28T16:13:57.584Z,4.50
2017-12-28T16:16:23.883Z,4.50
2017-12-28T16:18:50.211Z,4.50
2017-12-28T16:21:17.268Z,4.40
2017-12-28T16:23:44.365Z,4.40
2017-12-28T16:26:10.730Z,4.40
2017-12-28T16:28:37.919Z,4.40
2017-12-28T16:31:04.399Z,4.40
2017-12-28T16:33:30.836Z,4.40
2017-12-28T16:35:57.264Z,4.40
2017-12-28T16:38:23.633Z,4.50
2017-12-28T16:40:50.695Z,4.50
2017-12-28T16:43:17.018Z,4.40
2017-12-28T16:45:44.150Z,4.50
2017-12-28T16:48:10.537Z,4.40
2017-12-28T16:50:36.870Z,4.40
2017-12-28T16:53:03.195Z,4.50
2017-12-28T16:55:36.446Z,4.40
2017-12-28T16:58:03.506Z,4.50
2017-12-28T17:00:29.827Z,4.40
2017-12-28T17:02:56.183Z,4.40
2017-12-28T17:05:22.501Z,4.30
2017-12-28T17:07:48.813Z,4.30
2017-12-28T17:10:15.931Z,4.30
2017-12-28T17:12:43.062Z,4.20
2017-12-28T17:15:09.394Z,4.20
2017-12-28T17:17:35.710Z,4.20
2017-12-28T17:20:02.074Z,4.20
2017-12-28T17:22:28.705Z,4.20
2017-12-28T17:24:55.129Z,4.20
2017-12-28T17:27:21.447Z,4.30
2017-12-28T17:29:47.871Z,4.30
2017-12-28T17:32:14.645Z,4.30
2017-12-28T17:34:41.742Z,4.40
2017-12-28T17:37:08.115Z,4.30
2017-12-28T17:39:34.438Z,4.30
2017-12-28T17:42:00.769Z,4.30
2017-12-28T17:44:27.112Z,4.30
2017-12-28T17:46:53.598Z,4.30
2017-12-28T17:49:20.791Z,4.20
2017-12-28T17:51:47.142Z,4.10
2017-12-28T17:54:13.472Z,4.30
2017-12-28T17:56:39.838Z,4.30
2017-12-28T17:59:06.231Z,4.30
2017-12-28T18:01:32.648Z,4.30
2017-12-28T18:03:58.954Z,4.30
2017-12-28T18:06:25.299Z,4.30
2017-12-28T18:08:51.681Z,4.30
2017-12-28T18:11:18.737Z,4.20
2017-12-28T18:13:45.185Z,4.20
2017-12-28T18:16:11.499Z,4.20
2017-12-28T18:18:37.870Z,4.20
2017-12-28T18:21:04.240Z,4.30
2017-12-28T18:23:31.312Z,4.30
2017-12-28T18:25:57.663Z,4.20
2017-12-28T18:28:24.810Z,4.20
2017-12-28T18:30:51.158Z,4.20
2017-12-28T18:33:17.492Z,4.10
2017-12-28T18:35:43.865Z,4.20
2017-12-28T18:38:10.969Z,4.00
2017-12-28T18:40:37.414Z,4.00
2017-12-28T18:43:03.777Z,4.10
2017-12-28T18:45:30.905Z,4.10
2017-12-28T18:47:57.279Z,4.10
2017-12-28T18:50:23.687Z,4.20
2017-12-28T18:52:50.786Z,4.10
2017-12-28T18:55:17.145Z,4.00
2017-12-28T18:57:43.568Z,4.10
2017-12-28T19:00:11.418Z,4.10
2017-12-28T19:02:38.566Z,4.10
2017-12-28T19:05:04.891Z,4.10
2017-12-28T19:07:31.265Z,4.10
2017-12-28T19:09:57.636Z,4.00
2017-12-28T19:12:24.074Z,4.10
2017-12-28T19:14:50.442Z,4.10
2017-12-28T19:17:16.806Z,4.00
2017-12-28T19:19:43.183Z,4.00
2017-12-28T19:22:09.507Z,4.10
2017-12-28T19:24:36.599Z,3.90
2017-12-28T19:27:02.955Z,3.90
2017-12-28T19:29:29.311Z,3.90
2017-12-28T19:31:56.375Z,4.00
2017-12-28T19:34:23.038Z,4.00
2017-12-28T19:36:49.363Z,3.90
2017-12-28T19:39:15.686Z,3.80
2017-12-28T19:41:42.134Z,3.70
2017-12-28T19:44:08.533Z,3.70
2017-12-28T19:46:35.566Z,3.70
2017-12-28T19:49:01.941Z,3.60
2017-12-28T19:51:29.155Z,3.70
2017-12-28T19:53:55.506Z,3.60
2017-12-28T19:56:21.873Z,3.70
2017-12-28T19:58:48.972Z,3.70
2017-12-28T20:01:15.346Z,3.70
2017-12-28T20:03:42.473Z,3.70
2017-12-28T20:06:08.866Z,3.70
2017-12-28T20:08:36.301Z,3.70
2017-12-28T20:11:02.989Z,3.70
2017-12-28T20:13:30.115Z,3.50
2017-12-28T20:15:56.499Z,3.40
2017-12-28T20:18:23.019Z,3.40
2017-12-28T20:20:49.864Z,3.40
2017-12-28T20:23:17.277Z,3.50
2017-12-28T20:25:44.573Z,3.60
2017-12-28T20:28:10.982Z,3.50
2017-12-28T20:30:37.659Z,3.60
2017-12-28T20:33:04.175Z,3.70
2017-12-28T20:35:30.849Z,3.60
2017-12-28T20:37:58.087Z,3.70
2017-12-28T20:40:24.561Z,3.70
2017-12-28T20:42:51.377Z,3.70
2017-12-28T20:45:18.611Z,3.60
2017-12-28T20:47:45.783Z,3.60
2017-12-28T20:50:12.242Z,3.50
2017-12-28T20:52:39.406Z,3.70
2017-12-28T20:55:05.958Z,3.70
2017-12-28T20:57:32.300Z,3.60
2017-12-28T20:59:59.536Z,3.60
2017-12-28T21:02:25.994Z,3.60
2017-12-28T21:04:53.141Z,3.70
2017-12-28T21:07:20.373Z,3.60
2017-12-28T21:09:47.773Z,3.50
2017-12-28T21:12:14.193Z,3.50
2017-12-28T21:14:41.323Z,3.60
2017-12-28T21:17:07.720Z,3.50
2017-12-28T21:19:34.213Z,3.70
2017-12-28T21:22:00.709Z,3.60
2017-12-28T21:24:27.366Z,3.60
2017-12-28T21:26:53.845Z,3.60
2017-12-28T21:29:20.314Z,3.60
2017-12-28T21:31:46.683Z,3.60
2017-12-28T21:34:13.894Z,3.50
2017-12-28T21:36:41.049Z,3.50
2017-12-28T21:39:07.452Z,3.50
2017-12-28T21:41:33.831Z,3.50
2017-12-28T21:44:00.941Z,3.60
2017-12-28T21:46:27.331Z,3.50
2017-12-28T21:48:54.431Z,3.70
2017-12-28T21:51:20.863Z,3.60
2017-12-28T21:53:47.208Z,3.70
2017-12-28T21:56:13.619Z,3.70
2017-12-28T21:58:40.279Z,3.70
2017-12-28T22:01:06.681Z,3.70
2017-12-28T22:03:33.066Z,3.70
2017-12-28T22:05:59.546Z,3.60
2017-12-28T22:08:25.926Z,3.70
2017-12-28T22:10:53.260Z,3.70
2017-12-28T22:13:21.477Z,3.70
2017-12-28T22:15:47.879Z,3.70
2017-12-28T22:18:15.014Z,3.70
2017-12-28T22:20:41.460Z,3.70
2017-12-28T22:23:08.613Z,3.80
2017-12-28T22:25:34.954Z,3.80
2017-12-28T22:28:02.170Z,3.90
2017-12-28T22:30:28.555Z,3.80
2017-12-28T22:32:54.936Z,3.70
2017-12-28T22:35:21.365Z,3.80
2017-12-28T22:37:47.868Z,3.90
2017-12-28T22:40:14.315Z,3.90
2017-12-28T22:42:40.731Z,3.90
2017-12-28T22:45:07.112Z,3.90
2017-12-28T22:47:34.350Z,3.90
2017-12-28T22:50:01.600Z,3.90
2017-12-28T22:52:27.996Z,3.90
2017-12-28T22:54:54.465Z,3.80
2017-12-28T22:57:20.850Z,3.90
2017-12-28T22:59:47.331Z,3.80
2017-12-28T23:02:13.730Z,3.80
2017-12-28T23:04:40.199Z,3.90
2017-12-28T23:07:06.629Z,3.90
2017-12-28T23:09:33.061Z,3.90
2017-12-28T23:11:59.393Z,3.90
2017-12-28T23:14:25.751Z,3.80
2017-12-28T23:16:52.118Z,3.80
2017-12-28T23:19:18.477Z,3.80
2017-12-28T23:21:44.798Z,3.80
2017-12-28T23:24:11.136Z,3.80
2017-12-28T23:26:37.458Z,3.80
2017-12-28T23:29:03.789Z,3.90
2017-12-28T23:31:30.119Z,3.80
2017-12-28T23:33:56.443Z,3.80
2017-12-28T23:36:22.773Z,3.80
2017-12-28T23:38:49.114Z,3.80
2017-12-28T23:41:15.461Z,3.90
2017-12-28T23:43:41.844Z,4.00
2017-12-28T23:46:08.288Z,3.90
2017-12-28T23:48:35.356Z,3.90
2017-12-28T23:51:01.713Z,3.80
2017-12-28T23:53:28.081Z,3.90
2017-12-28T23:55:54.422Z,4.00
2017-12-28T23:58:20.774Z,4.10
